sensor_id;sensor_type;location;lat;lon;timestamp;pressure;altitude;pressure_sealevel;temperature;humidity
71974;BME280;59840;52.122;5.404;2023-02-22T00:01:33;101690.88;;;6.44;100.00
71974;BME280;59840;52.122;5.404;2023-02-22T00:04:16;101689.06;;;6.45;99.93
71974;BME280;59840;52.122;5.404;2023-02-22T00:06:47;101688.25;;;6.44;100.00
71974;BME280;59840;52.122;5.404;2023-02-22T00:09:15;101697.31;;;6.42;99.99
71974;BME280;59840;52.122;5.404;2023-02-22T00:11:47;101692.44;;;6.38;99.87
71974;BME280;59840;52.122;5.404;2023-02-22T00:14:14;101692.84;;;6.35;99.82
71974;BME280;59840;52.122;5.404;2023-02-22T00:16:40;101696.06;;;6.37;99.99
71974;BME280;59840;52.122;5.404;2023-02-22T00:19:07;101689.22;;;6.36;99.79
71974;BME280;59840;52.122;5.404;2023-02-22T00:21:33;101688.59;;;6.34;100.00
71974;BME280;59840;52.122;5.404;2023-02-22T00:24:00;101687.59;;;6.35;99.83
71974;BME280;59840;52.122;5.404;2023-02-22T00:26:42;101690.41;;;6.34;99.82
71974;BME280;59840;52.122;5.404;2023-02-22T00:29:08;101690.41;;;6.34;99.70
71974;BME280;59840;52.122;5.404;2023-02-22T00:31:38;101696.28;;;6.36;100.00
71974;BME280;59840;52.122;5.404;2023-02-22T00:34:04;101702.31;;;6.36;99.92
71974;BME280;59840;52.122;5.404;2023-02-22T00:36:31;101695.28;;;6.37;99.77
71974;BME280;59840;52.122;5.404;2023-02-22T00:38:57;101690.22;;;6.35;99.93
71974;BME280;59840;52.122;5.404;2023-02-22T00:41:24;101696.28;;;6.36;99.83
71974;BME280;59840;52.122;5.404;2023-02-22T00:43:51;101694.66;;;6.35;99.69
71974;BME280;59840;52.122;5.404;2023-02-22T00:46:17;101688.78;;;6.33;99.86
71974;BME280;59840;52.122;5.404;2023-02-22T00:48:44;101684.75;;;6.30;99.55
71974;BME280;59840;52.122;5.404;2023-02-22T00:51:10;101688.00;;;6.32;99.69
71974;BME280;59840;52.122;5.404;2023-02-22T00:53:37;101679.50;;;6.30;100.00
71974;BME280;59840;52.122;5.404;2023-02-22T00:56:04;101673.47;;;6.30;99.45
71974;BME280;59840;52.122;5.404;2023-02-22T00:58:30;101674.47;;;6.29;99.80
71974;BME280;59840;52.122;5.404;2023-02-22T01:00:57;101664.97;;;6.28;99.94
71974;BME280;59840;52.122;5.404;2023-02-22T01:03:23;101672.03;;;6.27;99.85
71974;BME280;59840;52.122;5.404;2023-02-22T01:05:50;101664.97;;;6.28;99.79
71974;BME280;59840;52.122;5.404;2023-02-22T01:08:16;101652.25;;;6.25;99.91
71974;BME280;59840;52.122;5.404;2023-02-22T01:10:43;101657.13;;;6.28;99.76
71974;BME280;59840;52.122;5.404;2023-02-22T01:13:11;101656.13;;;6.29;100.00
71974;BME280;59840;52.122;5.404;2023-02-22T01:15:40;101651.69;;;6.29;100.00
71974;BME280;59840;52.122;5.404;2023-02-22T01:18:08;101651.69;;;6.29;100.00
71974;BME280;59840;52.122;5.404;2023-02-22T01:20:35;101661.34;;;6.29;100.00
71974;BME280;59840;52.122;5.404;2023-02-22T01:23:03;101650.06;;;6.28;99.98
71974;BME280;59840;52.122;5.404;2023-02-22T01:25:33;101655.69;;;6.25;100.00
71974;BME280;59840;52.122;5.404;2023-02-22T01:28:01;101643.59;;;6.24;99.99
71974;BME280;59840;52.122;5.404;2023-02-22T01:30:31;101647.44;;;6.22;100.00
71974;BME280;59840;52.122;5.404;2023-02-22T01:33:02;101643.22;;;6.21;100.00
71974;BME280;59840;52.122;5.404;2023-02-22T01:35:31;101649.06;;;6.23;100.00
71974;BME280;59840;52.122;5.404;2023-02-22T01:37:58;101648.84;;;6.24;100.00
71974;BME280;59840;52.122;5.404;2023-02-22T01:40:28;101649.06;;;6.23;100.00
71974;BME280;59840;52.122;5.404;2023-02-22T01:43:01;101636.16;;;6.21;99.89
71974;BME280;59840;52.122;5.404;2023-02-22T01:48:07;101633.72;;;6.20;100.00
71974;BME280;59840;52.122;5.404;2023-02-22T01:51:26;101628.69;;;6.18;100.00
71974;BME280;59840;52.122;5.404;2023-02-22T01:53:33;101627.44;;;6.14;99.25
71974;BME280;59840;52.122;5.404;2023-02-22T01:56:02;101625.78;;;6.07;99.51
71974;BME280;59840;52.122;5.404;2023-02-22T01:58:31;101639.91;;;6.05;99.64
71974;BME280;59840;52.122;5.404;2023-02-22T02:00:59;101635.03;;;6.02;99.32
71974;BME280;59840;52.122;5.404;2023-02-22T02:03:32;101624.38;;;6.04;99.47
71974;BME280;59840;52.122;5.404;2023-02-22T02:06:02;101623.13;;;6.00;99.08
71974;BME280;59840;52.122;5.404;2023-02-22T02:08:58;101619.28;;;5.96;99.31
71974;BME280;59840;52.122;5.404;2023-02-22T02:11:26;101619.47;;;5.94;99.89
71974;BME280;59840;52.122;5.404;2023-02-22T02:13:55;101623.91;;;5.94;99.68
71974;BME280;59840;52.122;5.404;2023-02-22T02:16:58;101612.00;;;5.91;99.82
71974;BME280;59840;52.122;5.404;2023-02-22T02:20:02;101609.78;;;5.88;99.41
71974;BME280;59840;52.122;5.404;2023-02-22T02:25:54;101601.72;;;5.90;99.32
71974;BME280;59840;52.122;5.404;2023-02-22T02:33:59;101597.06;;;5.85;99.77
71974;BME280;59840;52.122;5.404;2023-02-22T02:36:43;101601.88;;;5.82;99.69
71974;BME280;59840;52.122;5.404;2023-02-22T02:39:25;101592.59;;;5.79;99.68
71974;BME280;59840;52.122;5.404;2023-02-22T02:41:52;101584.13;;;5.77;99.44
71974;BME280;59840;52.122;5.404;2023-02-22T02:44:48;101590.38;;;5.76;99.47
71974;BME280;59840;52.122;5.404;2023-02-22T02:47:21;101575.00;;;5.66;98.90
71974;BME280;59840;52.122;5.404;2023-02-22T02:49:54;101574.34;;;5.58;99.25
71974;BME280;59840;52.122;5.404;2023-02-22T02:52:24;101574.34;;;5.58;99.07
71974;BME280;59840;52.122;5.404;2023-02-22T02:54:52;101571.91;;;5.56;99.09
71974;BME280;59840;52.122;5.404;2023-02-22T02:57:20;101567.91;;;5.54;99.26
71974;BME280;59840;52.122;5.404;2023-02-22T02:59:47;101570.91;;;5.51;99.40
71974;BME280;59840;52.122;5.404;2023-02-22T03:10:44;101564.19;;;5.42;99.09
71974;BME280;59840;52.122;5.404;2023-02-22T03:19:52;101554.25;;;5.30;99.29
71974;BME280;59840;52.122;5.404;2023-02-22T03:22:29;101558.50;;;5.31;99.34
71974;BME280;59840;52.122;5.404;2023-02-22T03:25:23;101555.69;;;5.33;99.73
71974;BME280;59840;52.122;5.404;2023-02-22T03:27:56;101550.63;;;5.31;99.32
71974;BME280;59840;52.122;5.404;2023-02-22T03:30:38;101548.03;;;5.31;99.56
71974;BME280;59840;52.122;5.404;2023-02-22T03:33:40;101549.63;;;5.32;99.17
71974;BME280;59840;52.122;5.404;2023-02-22T03:36:14;101548.84;;;5.32;99.30
71974;BME280;59840;52.122;5.404;2023-02-22T03:38:44;101540.38;;;5.30;99.44
71974;BME280;59840;52.122;5.404;2023-02-22T03:41:15;101544.97;;;5.28;99.36
71974;BME280;59840;52.122;5.404;2023-02-22T03:43:48;101542.38;;;5.28;99.45
71974;BME280;59840;52.122;5.404;2023-02-22T03:46:16;101538.31;;;5.25;99.74
71974;BME280;59840;52.122;5.404;2023-02-22T03:48:48;101536.50;;;5.26;99.64
71974;BME280;59840;52.122;5.404;2023-02-22T03:51:16;101531.03;;;5.21;99.65
71974;BME280;59840;52.122;5.404;2023-02-22T03:53:44;101532.25;;;5.18;99.43
71974;BME280;59840;52.122;5.404;2023-02-22T03:56:14;101533.25;;;5.17;100.00
71974;BME280;59840;52.122;5.404;2023-02-22T03:58:46;101529.03;;;5.16;100.00
71974;BME280;59840;52.122;5.404;2023-02-22T04:01:13;101522.78;;;5.17;100.00
71974;BME280;59840;52.122;5.404;2023-02-22T04:03:41;101529.03;;;5.16;99.73
71974;BME280;59840;52.122;5.404;2023-02-22T04:06:08;101525.59;;;5.16;99.68
71974;BME280;59840;52.122;5.404;2023-02-22T04:08:35;101518.94;;;5.13;99.42
71974;BME280;59840;52.122;5.404;2023-02-22T04:11:01;101518.50;;;5.10;100.00
71974;BME280;59840;52.122;5.404;2023-02-22T04:13:28;101516.53;;;5.12;100.00
71974;BME280;59840;52.122;5.404;2023-02-22T04:15:54;101516.31;;;5.13;100.00
71974;BME280;59840;52.122;5.404;2023-02-22T04:18:21;101505.69;;;5.15;100.00
71974;BME280;59840;52.122;5.404;2023-02-22T04:20:47;101508.84;;;5.10;99.84
71974;BME280;59840;52.122;5.404;2023-02-22T04:23:14;101510.47;;;5.11;100.00
71974;BME280;59840;52.122;5.404;2023-02-22T04:25:42;101510.84;;;5.08;100.00
71974;BME280;59840;52.122;5.404;2023-02-22T04:28:09;101506.19;;;5.03;99.89
71974;BME280;59840;52.122;5.404;2023-02-22T04:30:35;101498.72;;;5.00;100.00
71974;BME280;59840;52.122;5.404;2023-02-22T04:33:02;101499.53;;;5.01;100.00
71974;BME280;59840;52.122;5.404;2023-02-22T04:35:28;101491.88;;;4.99;100.00
71974;BME280;59840;52.122;5.404;2023-02-22T04:37:55;101490.25;;;4.98;100.00
71974;BME280;59840;52.122;5.404;2023-02-22T04:40:21;101493.94;;;5.04;100.00
71974;BME280;59840;52.122;5.404;2023-02-22T04:42:48;101486.28;;;5.02;100.00
71974;BME280;59840;52.122;5.404;2023-02-22T04:45:15;101479.41;;;5.01;100.00
71974;BME280;59840;52.122;5.404;2023-02-22T04:47:41;101483.84;;;5.01;100.00
71974;BME280;59840;52.122;5.404;2023-02-22T04:50:09;101473.38;;;5.01;100.00
71974;BME280;59840;52.122;5.404;2023-02-22T04:52:36;101470.16;;;4.99;100.00
71974;BME280;59840;52.122;5.404;2023-02-22T04:55:03;101465.09;;;4.97;100.00
71974;BME280;59840;52.122;5.404;2023-02-22T04:57:30;101459.44;;;4.94;100.00
71974;BME280;59840;52.122;5.404;2023-02-22T04:59:57;101460.84;;;4.90;100.00
71974;BME280;59840;52.122;5.404;2023-02-22T05:02:24;101461.22;;;4.87;100.00
71974;BME280;59840;52.122;5.404;2023-02-22T05:04:50;101452.38;;;4.88;100.00
71974;BME280;59840;52.122;5.404;2023-02-22T05:07:17;101460.03;;;4.89;100.00
71974;BME280;59840;52.122;5.404;2023-02-22T05:09:43;101456.78;;;4.87;100.00
71974;BME280;59840;52.122;5.404;2023-02-22T05:12:10;101445.53;;;4.87;100.00
71974;BME280;59840;52.122;5.404;2023-02-22T05:14:37;101449.13;;;4.86;100.00
71974;BME280;59840;52.122;5.404;2023-02-22T05:17:03;101450.16;;;4.85;100.00
71974;BME280;59840;52.122;5.404;2023-02-22T05:19:30;101438.09;;;4.84;100.00
71974;BME280;59840;52.122;5.404;2023-02-22T05:21:56;101441.69;;;4.83;100.00
71974;BME280;59840;52.122;5.404;2023-02-22T05:24:23;101443.31;;;4.84;100.00
71974;BME280;59840;52.122;5.404;2023-02-22T05:26:50;101430.25;;;4.84;100.00
71974;BME280;59840;52.122;5.404;2023-02-22T05:29:16;101438.91;;;4.84;100.00
71974;BME280;59840;52.122;5.404;2023-02-22T05:31:43;101436.69;;;4.88;100.00
71974;BME280;59840;52.122;5.404;2023-02-22T05:34:10;101432.25;;;4.88;100.00
71974;BME280;59840;52.122;5.404;2023-02-22T05:36:36;101436.50;;;4.89;100.00
71974;BME280;59840;52.122;5.404;2023-02-22T05:39:03;101432.44;;;4.87;100.00
71974;BME280;59840;52.122;5.404;2023-02-22T05:41:30;101436.84;;;4.80;100.00
71974;BME280;59840;52.122;5.404;2023-02-22T05:43:57;101435.03;;;4.80;100.00
71974;BME280;59840;52.122;5.404;2023-02-22T05:46:23;101433.63;;;4.78;100.00
71974;BME280;59840;52.122;5.404;2023-02-22T05:48:50;101429.00;;;4.80;100.00
71974;BME280;59840;52.122;5.404;2023-02-22T05:51:17;101427.59;;;4.77;100.00
71974;BME280;59840;52.122;5.404;2023-02-22T05:53:44;101425.97;;;4.76;100.00
71974;BME280;59840;52.122;5.404;2023-02-22T05:56:11;101419.50;;;4.72;100.00
71974;BME280;59840;52.122;5.404;2023-02-22T05:58:38;101414.91;;;4.74;100.00
71974;BME280;59840;52.122;5.404;2023-02-22T06:01:04;101416.69;;;4.74;100.00
71974;BME280;59840;52.122;5.404;2023-02-22T06:03:31;101413.09;;;4.75;100.00
71974;BME280;59840;52.122;5.404;2023-02-22T06:05:57;101410.28;;;4.76;100.00
71974;BME280;59840;52.122;5.404;2023-02-22T06:08:24;101410.47;;;4.75;100.00
71974;BME280;59840;52.122;5.404;2023-02-22T06:10:50;101406.25;;;4.74;100.00
71974;BME280;59840;52.122;5.404;2023-02-22T06:13:17;101398.41;;;4.74;100.00
71974;BME280;59840;52.122;5.404;2023-02-22T06:15:43;101400.63;;;4.77;100.00
71974;BME280;59840;52.122;5.404;2023-02-22T06:18:10;101399.63;;;4.78;100.00
71974;BME280;59840;52.122;5.404;2023-02-22T06:20:37;101391.97;;;4.76;100.00
71974;BME280;59840;52.122;5.404;2023-02-22T06:23:03;101398.63;;;4.79;100.00
71974;BME280;59840;52.122;5.404;2023-02-22T06:25:30;101396.63;;;4.81;100.00
71974;BME280;59840;52.122;5.404;2023-02-22T06:27:58;101400.69;;;4.83;100.00
71974;BME280;59840;52.122;5.404;2023-02-22T06:30:26;101410.13;;;4.84;100.00
71974;BME280;59840;52.122;5.404;2023-02-22T06:32:56;101405.91;;;4.83;100.00
71974;BME280;59840;52.122;5.404;2023-02-22T06:35:23;101410.31;;;4.83;100.00
71974;BME280;59840;52.122;5.404;2023-02-22T06:37:50;101408.31;;;4.85;100.00
71974;BME280;59840;52.122;5.404;2023-02-22T06:40:20;101404.91;;;4.84;100.00
71974;BME280;59840;52.122;5.404;2023-02-22T06:42:48;101397.47;;;4.88;100.00
71974;BME280;59840;52.122;5.404;2023-02-22T06:45:16;101411.53;;;4.87;100.00
71974;BME280;59840;52.122;5.404;2023-02-22T06:47:43;101394.22;;;4.86;100.00
71974;BME280;59840;52.122;5.404;2023-02-22T06:50:28;101392.03;;;4.83;100.00
71974;BME280;59840;52.122;5.404;2023-02-22T06:52:56;101392.03;;;4.83;100.00
71974;BME280;59840;52.122;5.404;2023-02-22T06:55:28;101382.56;;;4.82;100.00
71974;BME280;59840;52.122;5.404;2023-02-22T06:57:55;101387.41;;;4.85;100.00
71974;BME280;59840;52.122;5.404;2023-02-22T07:00:23;101387.41;;;4.85;100.00
71974;BME280;59840;52.122;5.404;2023-02-22T07:02:51;101388.19;;;4.85;100.00
71974;BME280;59840;52.122;5.404;2023-02-22T07:05:19;101381.56;;;4.83;100.00
71974;BME280;59840;52.122;5.404;2023-02-22T07:07:49;101387.41;;;4.85;100.00
71974;BME280;59840;52.122;5.404;2023-02-22T07:10:25;101373.94;;;4.88;100.00
71974;BME280;59840;52.122;5.404;2023-02-22T07:12:52;101374.53;;;4.90;100.00
71974;BME280;59840;52.122;5.404;2023-02-22T07:15:23;101383.44;;;4.95;100.00
71974;BME280;59840;52.122;5.404;2023-02-22T07:17:51;101374.78;;;4.95;100.00
71974;BME280;59840;52.122;5.404;2023-02-22T07:20:18;101384.44;;;4.94;100.00
71974;BME280;59840;52.122;5.404;2023-02-22T07:22:46;101389.06;;;4.99;100.00
71974;BME280;59840;52.122;5.404;2023-02-22T07:25:13;101394.94;;;5.01;100.00
71974;BME280;59840;52.122;5.404;2023-02-22T07:27:40;101396.16;;;5.05;100.00
71974;BME280;59840;52.122;5.404;2023-02-22T07:30:15;101390.94;;;5.05;100.00
71974;BME280;59840;52.122;5.404;2023-02-22T07:32:42;101393.72;;;5.03;100.00
71974;BME280;59840;52.122;5.404;2023-02-22T07:35:17;101393.72;;;5.03;100.00
71974;BME280;59840;52.122;5.404;2023-02-22T07:37:44;101389.31;;;5.04;100.00
71974;BME280;59840;52.122;5.404;2023-02-22T07:40:11;101392.94;;;5.03;100.00
71974;BME280;59840;52.122;5.404;2023-02-22T07:42:53;101388.94;;;5.07;100.00
71974;BME280;59840;52.122;5.404;2023-02-22T07:45:21;101398.63;;;5.13;100.00
71974;BME280;59840;52.122;5.404;2023-02-22T07:47:48;101401.03;;;5.21;100.00
71974;BME280;59840;52.122;5.404;2023-02-22T07:50:16;101404.66;;;5.20;100.00
71974;BME280;59840;52.122;5.404;2023-02-22T07:52:47;101403.66;;;5.21;100.00
71974;BME280;59840;52.122;5.404;2023-02-22T07:55:16;101404.28;;;5.23;100.00
71974;BME280;59840;52.122;5.404;2023-02-22T07:57:47;101401.84;;;5.22;100.00
71974;BME280;59840;52.122;5.404;2023-02-22T08:00:20;101411.94;;;5.25;100.00
71974;BME280;59840;52.122;5.404;2023-02-22T08:02:48;101411.72;;;5.26;100.00
71974;BME280;59840;52.122;5.404;2023-02-22T08:05:15;101411.72;;;5.26;100.00
71974;BME280;59840;52.122;5.404;2023-02-22T08:07:41;101411.34;;;5.29;100.00
71974;BME280;59840;52.122;5.404;2023-02-22T08:10:09;101407.53;;;5.32;100.00
71974;BME280;59840;52.122;5.404;2023-02-22T08:12:36;101412.97;;;5.30;100.00
71974;BME280;59840;52.122;5.404;2023-02-22T08:15:05;101410.34;;;5.30;100.00
71974;BME280;59840;52.122;5.404;2023-02-22T08:17:33;101403.72;;;5.34;100.00
71974;BME280;59840;52.122;5.404;2023-02-22T08:20:00;101408.38;;;5.39;100.00
71974;BME280;59840;52.122;5.404;2023-02-22T08:22:26;101408.78;;;5.43;100.00
71974;BME280;59840;52.122;5.404;2023-02-22T08:24:54;101411.81;;;5.46;100.00
71974;BME280;59840;52.122;5.404;2023-02-22T08:27:25;101408.81;;;5.49;100.00
71974;BME280;59840;52.122;5.404;2023-02-22T08:29:52;101410.03;;;5.53;100.00
71974;BME280;59840;52.122;5.404;2023-02-22T08:32:19;101395.94;;;5.54;100.00
71974;BME280;59840;52.122;5.404;2023-02-22T08:34:46;101395.53;;;5.57;100.00
71974;BME280;59840;52.122;5.404;2023-02-22T08:37:14;101394.72;;;5.57;100.00
71974;BME280;59840;52.122;5.404;2023-02-22T08:39:42;101407.63;;;5.65;100.00
71974;BME280;59840;52.122;5.404;2023-02-22T08:42:08;101410.09;;;5.73;100.00
71974;BME280;59840;52.122;5.404;2023-02-22T08:44:36;101410.69;;;5.75;100.00
71974;BME280;59840;52.122;5.404;2023-02-22T08:47:04;101402.84;;;5.75;100.00
71974;BME280;59840;52.122;5.404;2023-02-22T08:49:32;101405.88;;;5.79;100.00
71974;BME280;59840;52.122;5.404;2023-02-22T08:51:58;101400.84;;;5.84;100.00
71974;BME280;59840;52.122;5.404;2023-02-22T08:54:25;101396.22;;;5.92;100.00
71974;BME280;59840;52.122;5.404;2023-02-22T08:56:51;101398.06;;;5.98;100.00
71974;BME280;59840;52.122;5.404;2023-02-22T08:59:18;101387.59;;;5.98;100.00
71974;BME280;59840;52.122;5.404;2023-02-22T09:01:44;101382.16;;;6.07;100.00
71974;BME280;59840;52.122;5.404;2023-02-22T09:04:11;101382.75;;;6.09;100.00
71974;BME280;59840;52.122;5.404;2023-02-22T09:06:41;101375.72;;;6.16;100.00
71974;BME280;59840;52.122;5.404;2023-02-22T09:09:09;101371.69;;;6.20;100.00
71974;BME280;59840;52.122;5.404;2023-02-22T09:11:35;101375.09;;;6.33;100.00
71974;BME280;59840;52.122;5.404;2023-02-22T09:14:02;101370.66;;;6.41;100.00
71974;BME280;59840;52.122;5.404;2023-02-22T09:16:29;101365.81;;;6.51;100.00
71974;BME280;59840;52.122;5.404;2023-02-22T09:18:56;101367.63;;;6.57;100.00
71974;BME280;59840;52.122;5.404;2023-02-22T09:21:23;101364.75;;;6.65;100.00
71974;BME280;59840;52.122;5.404;2023-02-22T09:23:49;101369.19;;;6.71;100.00
71974;BME280;59840;52.122;5.404;2023-02-22T09:26:16;101374.00;;;6.81;100.00
71974;BME280;59840;52.122;5.404;2023-02-22T09:28:42;101373.19;;;6.87;99.96
71974;BME280;59840;52.122;5.404;2023-02-22T09:31:09;101372.19;;;6.88;99.75
71974;BME280;59840;52.122;5.404;2023-02-22T09:33:35;101367.94;;;6.87;99.58
71974;BME280;59840;52.122;5.404;2023-02-22T09:36:02;101360.25;;;6.92;99.37
71974;BME280;59840;52.122;5.404;2023-02-22T09:38:28;101366.94;;;6.88;98.92
71974;BME280;59840;52.122;5.404;2023-02-22T09:41:14;101364.50;;;6.93;99.26
71974;BME280;59840;52.122;5.404;2023-02-22T09:46:36;101360.56;;;7.15;98.78
71974;BME280;59840;52.122;5.404;2023-02-22T09:49:15;101341.75;;;7.25;98.55
71974;BME280;59840;52.122;5.404;2023-02-22T09:54:54;101332.16;;;7.44;97.11
71974;BME280;59840;52.122;5.404;2023-02-22T09:57:30;101329.09;;;7.47;97.76
71974;BME280;59840;52.122;5.404;2023-02-22T10:00:03;101324.59;;;7.60;97.07
71974;BME280;59840;52.122;5.404;2023-02-22T10:02:53;101324.47;;;7.73;97.27
71974;BME280;59840;52.122;5.404;2023-02-22T10:05:26;101321.16;;;7.85;96.36
71974;BME280;59840;52.122;5.404;2023-02-22T10:08:00;101323.91;;;7.96;96.29
71974;BME280;59840;52.122;5.404;2023-02-22T10:10:34;101310.47;;;8.04;96.20
71974;BME280;59840;52.122;5.404;2023-02-22T10:13:27;101305.97;;;8.12;95.84
71974;BME280;59840;52.122;5.404;2023-02-22T10:15:58;101310.81;;;8.15;95.02
71974;BME280;59840;52.122;5.404;2023-02-22T10:18:52;101306.66;;;8.25;94.92
71974;BME280;59840;52.122;5.404;2023-02-22T10:27:16;101315.84;;;8.78;93.73
71974;BME280;59840;52.122;5.404;2023-02-22T10:29:53;101319.19;;;8.85;92.56
71974;BME280;59840;52.122;5.404;2023-02-22T10:32:30;101307.44;;;8.87;91.64
71974;BME280;59840;52.122;5.404;2023-02-22T10:34:59;101314.75;;;8.85;92.15
71974;BME280;59840;52.122;5.404;2023-02-22T10:37:32;101310.56;;;8.78;92.07
71974;BME280;59840;52.122;5.404;2023-02-22T10:40:22;101305.44;;;8.83;92.36
71974;BME280;59840;52.122;5.404;2023-02-22T10:43:05;101313.28;;;8.89;91.79
71974;BME280;59840;52.122;5.404;2023-02-22T10:45:34;101313.63;;;8.93;91.61
71974;BME280;59840;52.122;5.404;2023-02-22T10:48:14;101303.72;;;9.06;90.55
71974;BME280;59840;52.122;5.404;2023-02-22T10:50:44;101315.19;;;9.12;90.18
71974;BME280;59840;52.122;5.404;2023-02-22T10:53:12;101308.81;;;9.20;91.21
71974;BME280;59840;52.122;5.404;2023-02-22T10:56:15;101307.63;;;9.34;89.97
71974;BME280;59840;52.122;5.404;2023-02-22T10:58:58;101308.19;;;9.36;89.75
71974;BME280;59840;52.122;5.404;2023-02-22T11:03:56;101297.63;;;9.24;88.87
71974;BME280;59840;52.122;5.404;2023-02-22T11:06:24;101299.09;;;9.20;89.23
71974;BME280;59840;52.122;5.404;2023-02-22T11:08:50;101299.31;;;9.19;88.60
71974;BME280;59840;52.122;5.404;2023-02-22T11:11:28;101296.47;;;9.20;89.16
71974;BME280;59840;52.122;5.404;2023-02-22T11:13:56;101297.63;;;9.24;89.63
71974;BME280;59840;52.122;5.404;2023-02-22T11:16:37;101292.13;;;9.26;89.92
71974;BME280;59840;52.122;5.404;2023-02-22T11:21:43;101291.25;;;9.32;90.68
71974;BME280;59840;52.122;5.404;2023-02-22T11:24:12;101289.41;;;9.32;91.09
71974;BME280;59840;52.122;5.404;2023-02-22T11:26:45;101289.31;;;9.39;91.37
71974;BME280;59840;52.122;5.404;2023-02-22T11:29:19;101291.63;;;9.47;90.76
71974;BME280;59840;52.122;5.404;2023-02-22T11:31:47;101296.47;;;9.62;90.00
71974;BME280;59840;52.122;5.404;2023-02-22T11:34:26;101290.88;;;9.70;89.41
71974;BME280;59840;52.122;5.404;2023-02-22T11:36:53;101289.59;;;9.72;87.54
71974;BME280;59840;52.122;5.404;2023-02-22T11:39:21;101287.44;;;9.69;87.74
71974;BME280;59840;52.122;5.404;2023-02-22T11:41:49;101281.38;;;9.69;87.11
71974;BME280;59840;52.122;5.404;2023-02-22T11:44:31;101283.66;;;9.77;87.47
71974;BME280;59840;52.122;5.404;2023-02-22T11:47:00;101280.34;;;9.82;86.96
71974;BME280;59840;52.122;5.404;2023-02-22T11:49:35;101278.97;;;9.91;86.40
71974;BME280;59840;52.122;5.404;2023-02-22T11:52:23;101269.22;;;9.80;86.04
71974;BME280;59840;52.122;5.404;2023-02-22T11:55:05;101268.28;;;9.74;86.74
71974;BME280;59840;52.122;5.404;2023-02-22T12:00:18;101259.50;;;9.68;86.58
71974;BME280;59840;52.122;5.404;2023-02-22T12:11:38;101249.13;;;9.44;87.71
71974;BME280;59840;52.122;5.404;2023-02-22T12:19:20;101247.19;;;9.51;88.14
71974;BME280;59840;52.122;5.404;2023-02-22T12:22:06;101252.81;;;9.54;88.58
71974;BME280;59840;52.122;5.404;2023-02-22T12:24:54;101255.91;;;9.63;89.04
71974;BME280;59840;52.122;5.404;2023-02-22T12:27:45;101248.81;;;9.75;87.99
71974;BME280;59840;52.122;5.404;2023-02-22T12:30:21;101251.56;;;9.80;88.53
71974;BME280;59840;52.122;5.404;2023-02-22T12:32:54;101247.78;;;9.88;87.36
71974;BME280;59840;52.122;5.404;2023-02-22T12:35:27;101241.25;;;9.90;87.28
71974;BME280;59840;52.122;5.404;2023-02-22T12:38:05;101244.03;;;9.95;87.27
71974;BME280;59840;52.122;5.404;2023-02-22T12:44:02;101231.16;;;10.34;86.75
71974;BME280;59840;52.122;5.404;2023-02-22T12:58:06;101228.44;;;10.69;84.85
71974;BME280;59840;52.122;5.404;2023-02-22T13:00:54;101211.31;;;10.71;84.22
71974;BME280;59840;52.122;5.404;2023-02-22T13:03:33;101219.94;;;10.67;84.13
71974;BME280;59840;52.122;5.404;2023-02-22T13:16:47;101219.47;;;10.70;84.04
71974;BME280;59840;52.122;5.404;2023-02-22T13:19:45;101226.81;;;10.68;84.74
71974;BME280;59840;52.122;5.404;2023-02-22T13:22:23;101220.28;;;10.70;84.46
71974;BME280;59840;52.122;5.404;2023-02-22T13:25:12;101222.13;;;10.70;83.96
71974;BME280;59840;52.122;5.404;2023-02-22T13:30:17;101218.22;;;10.61;84.26
71974;BME280;59840;52.122;5.404;2023-02-22T13:33:03;101221.25;;;10.41;83.84
71974;BME280;59840;52.122;5.404;2023-02-22T13:36:02;101222.06;;;10.41;85.08
71974;BME280;59840;52.122;5.404;2023-02-22T13:42:04;101219.53;;;10.47;85.34
71974;BME280;59840;52.122;5.404;2023-02-22T13:50:24;101213.56;;;10.51;85.31
71974;BME280;59840;52.122;5.404;2023-02-22T13:52:56;101214.81;;;10.49;85.05
71974;BME280;59840;52.122;5.404;2023-02-22T13:55:26;101220.09;;;10.49;84.97
71974;BME280;59840;52.122;5.404;2023-02-22T13:58:02;101225.38;;;10.49;85.06
71974;BME280;59840;52.122;5.404;2023-02-22T14:00:45;101215.63;;;10.49;84.84
71974;BME280;59840;52.122;5.404;2023-02-22T14:13:09;101223.94;;;10.29;84.80
71974;BME280;59840;52.122;5.404;2023-02-22T14:18:43;101232.78;;;10.23;84.69
71974;BME280;59840;52.122;5.404;2023-02-22T14:21:19;101239.88;;;10.23;85.08
71974;BME280;59840;52.122;5.404;2023-02-22T14:23:51;101237.81;;;10.25;84.94
71974;BME280;59840;52.122;5.404;2023-02-22T14:26:25;101227.75;;;10.22;84.98
71974;BME280;59840;52.122;5.404;2023-02-22T14:31:31;101235.50;;;10.17;84.86
71974;BME280;59840;52.122;5.404;2023-02-22T14:36:36;101246.19;;;10.22;85.38
71974;BME280;59840;52.122;5.404;2023-02-22T14:39:21;101241.50;;;10.24;85.24
71974;BME280;59840;52.122;5.404;2023-02-22T14:41:59;101243.09;;;10.25;85.63
71974;BME280;59840;52.122;5.404;2023-02-22T14:55:58;101237.59;;;10.38;85.42
71974;BME280;59840;52.122;5.404;2023-02-22T14:58:42;101239.41;;;10.37;84.97
71974;BME280;59840;52.122;5.404;2023-02-22T15:01:28;101235.88;;;10.32;85.08
71974;BME280;59840;52.122;5.404;2023-02-22T15:04:22;101241.59;;;10.29;85.74
71974;BME280;59840;52.122;5.404;2023-02-22T15:06:52;101236.00;;;10.25;85.80
71974;BME280;59840;52.122;5.404;2023-02-22T15:09:22;101232.44;;;10.20;86.27
71974;BME280;59840;52.122;5.404;2023-02-22T15:12:20;101235.63;;;10.10;86.72
71974;BME280;59840;52.122;5.404;2023-02-22T15:14:43;101225.53;;;10.07;87.09
71974;BME280;59840;52.122;5.404;2023-02-22T15:17:18;101232.09;;;10.04;86.40
71974;BME280;59840;52.122;5.404;2023-02-22T15:19:46;101226.03;;;10.04;86.33
71974;BME280;59840;52.122;5.404;2023-02-22T15:22:20;101228.88;;;10.02;86.64
71974;BME280;59840;52.122;5.404;2023-02-22T15:25:00;101229.13;;;10.01;86.98